Time;durP1;ratioP1;P1;durP2;ratioP2;P2;SDS_P1;SDS_P2;PMS_P1;PMS_P2;Temp;Humidity;BMP_temperature;BMP_pressure;BME280_temperature;BME280_humidity;BME280_pressure;Samples;Min_cycle;Max_cycle;Signal;HPM_P1;HPM_P2
2022/11/24 00:01:15;;;;;;;8.07;5.47;;;8.60;99.90;;;;;;5084416;28;20620;-51
2022/11/24 00:03:41;;;;;;;7.45;5.00;;;8.60;99.90;;;;;;5089494;28;20028;-50
2022/11/24 00:06:12;;;;;;;5.97;5.28;;;8.60;99.90;;;;;;5085699;28;20031;-50
2022/11/24 00:08:40;;;;;;;5.88;4.97;;;8.60;99.90;;;;;;5100729;28;20044;-50
2022/11/24 00:11:08;;;;;;;6.78;5.05;;;8.50;99.90;;;;;;5095349;28;20480;-49
2022/11/24 00:13:37;;;;;;;7.30;5.18;;;8.60;99.90;;;;;;5079814;28;20012;-50
2022/11/24 00:16:15;;;;;;;7.60;5.47;;;8.60;99.90;;;;;;5085797;28;20036;-50
2022/11/24 00:18:42;;;;;;;6.55;5.18;;;8.60;99.90;;;;;;5084597;28;20042;-50
2022/11/24 00:21:08;;;;;;;6.90;5.18;;;8.60;99.90;;;;;;5082470;28;20539;-50
2022/11/24 00:23:35;;;;;;;7.50;5.40;;;8.60;99.90;;;;;;5082279;28;20033;-50
2022/11/24 00:26:11;;;;;;;7.20;4.88;;;8.60;99.90;;;;;;5084557;28;20024;-50
2022/11/24 00:28:37;;;;;;;6.75;4.85;;;8.60;99.90;;;;;;5089320;28;20387;-49
2022/11/24 00:31:04;;;;;;;6.78;5.18;;;8.60;99.90;;;;;;5078540;28;20033;-50
2022/11/24 00:33:30;;;;;;;9.32;6.22;;;8.60;99.90;;;;;;5083599;28;20033;-49
2022/11/24 00:35:59;;;;;;;8.90;6.65;;;8.60;99.90;;;;;;5085871;28;20490;-49
2022/11/24 00:38:26;;;;;;;7.00;5.43;;;8.70;99.90;;;;;;5083477;28;20029;-50
2022/11/24 00:40:51;;;;;;;7.70;5.70;;;8.70;99.90;;;;;;5084819;28;20048;-50
2022/11/24 00:43:18;;;;;;;8.50;6.53;;;8.70;99.90;;;;;;5089734;28;20039;-50
2022/11/24 00:45:43;;;;;;;7.63;5.90;;;8.70;99.90;;;;;;5086001;28;20027;-50
2022/11/24 00:48:09;;;;;;;7.15;5.80;;;8.80;99.90;;;;;;5083802;28;20411;-51
2022/11/24 00:50:35;;;;;;;8.55;6.20;;;8.80;99.90;;;;;;5086411;28;20357;-49
2022/11/24 00:53:01;;;;;;;7.85;5.88;;;8.70;99.90;;;;;;5084678;28;20520;-50
2022/11/24 00:55:26;;;;;;;6.85;5.35;;;8.70;99.90;;;;;;5086828;28;20111;-50
2022/11/24 00:57:52;;;;;;;7.20;5.93;;;8.70;99.90;;;;;;5087030;28;20023;-50
2022/11/24 01:00:18;;;;;;;10.02;6.80;;;8.70;99.90;;;;;;5086517;28;20032;-51
2022/11/24 01:02:44;;;;;;;9.60;6.15;;;8.70;99.90;;;;;;5090505;28;20379;-49
2022/11/24 01:05:10;;;;;;;8.48;6.13;;;8.80;99.90;;;;;;5088316;28;20029;-50
2022/11/24 01:07:36;;;;;;;10.93;6.75;;;8.70;99.90;;;;;;5080953;28;20034;-52
2022/11/24 01:10:01;;;;;;;8.88;6.47;;;8.70;99.90;;;;;;5081301;28;20020;-49
2022/11/24 01:12:27;;;;;;;8.55;6.97;;;8.60;99.90;;;;;;5081275;28;20383;-50
2022/11/24 01:14:53;;;;;;;9.90;7.63;;;8.60;99.90;;;;;;5083501;28;20074;-49
2022/11/24 01:17:19;;;;;;;10.90;7.82;;;8.50;99.90;;;;;;5080617;28;20024;-49
2022/11/24 01:19:48;;;;;;;8.50;7.28;;;8.50;99.90;;;;;;5081795;28;20071;-49
2022/11/24 01:22:14;;;;;;;11.05;7.13;;;8.50;99.90;;;;;;5085857;28;20035;-50
2022/11/24 01:24:40;;;;;;;8.85;7.57;;;8.50;99.90;;;;;;5081079;28;20053;-50
2022/11/24 01:27:06;;;;;;;9.82;7.65;;;8.50;99.90;;;;;;5082437;28;20503;-50
2022/11/24 01:29:32;;;;;;;8.63;6.75;;;8.50;99.90;;;;;;5087717;28;20024;-50
2022/11/24 01:31:57;;;;;;;9.80;7.53;;;8.50;99.90;;;;;;5076303;28;20041;-49
2022/11/24 01:34:23;;;;;;;11.02;7.97;;;8.50;99.90;;;;;;5077255;28;20017;-50
2022/11/24 01:36:49;;;;;;;10.15;7.88;;;8.50;99.90;;;;;;5085634;28;20028;-49
2022/11/24 01:39:15;;;;;;;10.90;7.80;;;8.50;99.90;;;;;;5084011;28;20033;-50
2022/11/24 01:41:40;;;;;;;10.23;8.40;;;8.50;99.90;;;;;;5080480;28;20055;-50
2022/11/24 01:44:24;;;;;;;12.05;7.90;;;8.40;99.90;;;;;;5094111;28;20040;-50
2022/11/24 01:47:01;;;;;;;9.80;7.00;;;8.40;99.90;;;;;;5089991;28;20040;-49
2022/11/24 01:49:43;;;;;;;10.40;6.82;;;8.40;99.90;;;;;;5081075;28;20078;-49
2022/11/24 01:52:14;;;;;;;;;;;8.40;99.90;;;;;;5082888;28;20020;-51
2022/11/24 01:54:57;;;;;;;8.73;6.75;;;8.40;99.90;;;;;;5088499;28;20015;-50
2022/11/24 01:57:34;;;;;;;7.72;6.38;;;8.40;99.90;;;;;;5081460;28;20056;-50
2022/11/24 02:00:06;;;;;;;8.00;6.38;;;8.40;99.90;;;;;;5083044;28;20127;-49
2022/11/24 02:02:31;;;;;;;;;;;8.40;99.90;;;;;;5064773;28;20387;-49
2022/11/24 02:05:00;;;;;;;7.72;5.93;;;8.30;99.90;;;;;;5079974;28;19912;-50
2022/11/24 02:07:26;;;;;;;7.53;6.10;;;8.30;99.90;;;;;;5078028;28;20029;-49
2022/11/24 02:09:57;;;;;;;8.32;6.50;;;8.40;99.90;;;;;;5088620;28;20039;-50
2022/11/24 02:12:25;;;;;;;8.13;5.83;;;8.40;99.90;;;;;;5076445;28;20032;-50
2022/11/24 02:14:52;;;;;;;9.57;7.03;;;8.40;99.90;;;;;;5085431;28;20475;-50
2022/11/24 02:17:18;;;;;;;7.22;5.53;;;8.40;99.90;;;;;;5084355;28;20384;-52
2022/11/24 02:19:57;;;;;;;7.43;5.32;;;8.40;99.90;;;;;;5085762;28;20037;-50
2022/11/24 02:22:46;;;;;;;8.60;6.35;;;8.00;99.90;;;;;;5081384;28;20591;-49
2022/11/24 02:25:12;;;;;;;6.70;5.65;;;8.40;99.90;;;;;;5075080;28;20043;-49
2022/11/24 02:27:37;;;;;;;6.80;5.53;;;8.50;99.90;;;;;;5076241;28;20032;-49
2022/11/24 02:30:04;;;;;;;7.22;5.55;;;8.40;99.90;;;;;;5083371;28;20020;-49
2022/11/24 02:32:32;;;;;;;6.97;5.75;;;8.50;99.90;;;;;;5080596;28;20048;-49
2022/11/24 02:35:03;;;;;;;8.68;5.85;;;8.40;99.90;;;;;;5079829;28;20111;-49
2022/11/24 02:37:29;;;;;;;7.43;5.75;;;8.40;99.90;;;;;;5079885;28;20150;-49
2022/11/24 02:39:55;;;;;;;7.55;5.70;;;8.40;99.90;;;;;;5080710;28;20192;-49
2022/11/24 02:42:22;;;;;;;9.40;6.68;;;8.40;99.90;;;;;;5098532;28;20068;-50
2022/11/24 02:44:53;;;;;;;10.40;7.65;;;8.40;99.90;;;;;;5080384;28;20507;-49
2022/11/24 02:47:19;;;;;;;8.43;6.00;;;8.50;99.90;;;;;;5084575;28;20523;-49
2022/11/24 02:49:44;;;;;;;7.50;6.07;;;8.50;99.90;;;;;;5082142;28;20037;-50
2022/11/24 02:52:10;;;;;;;7.25;5.95;;;8.50;99.90;;;;;;5099481;28;20414;-50
2022/11/24 02:54:36;;;;;;;5.75;4.80;;;8.50;99.90;;;;;;5082604;28;20479;-49
2022/11/24 02:57:01;;;;;;;8.35;5.65;;;8.50;99.90;;;;;;5084609;28;20422;-49
2022/11/24 02:59:27;;;;;;;6.47;5.50;;;8.50;99.90;;;;;;5087322;28;20051;-49
2022/11/24 03:01:53;;;;;;;6.13;5.20;;;8.50;99.90;;;;;;5083855;28;20052;-49
2022/11/24 03:04:18;;;;;;;6.95;4.90;;;8.60;99.90;;;;;;5079474;28;20063;-49
2022/11/24 03:06:44;;;;;;;6.30;4.72;;;8.50;99.90;;;;;;5097825;28;20071;-49
2022/11/24 03:09:10;;;;;;;6.20;4.80;;;8.50;99.90;;;;;;5091705;28;20036;-49
2022/11/24 03:11:37;;;;;;;6.22;5.22;;;8.50;99.90;;;;;;5084002;28;20031;-49
2022/11/24 03:14:03;;;;;;;5.80;4.78;;;8.60;99.90;;;;;;5087054;28;20503;-50
2022/11/24 03:16:28;;;;;;;6.47;5.35;;;8.50;99.90;;;;;;5089447;28;20036;-50
2022/11/24 03:18:54;;;;;;;6.20;5.00;;;8.50;99.90;;;;;;5052437;28;20025;-50
2022/11/24 03:21:20;;;;;;;7.90;5.40;;;8.50;99.90;;;;;;5065673;28;20059;-50
2022/11/24 03:23:46;;;;;;;6.05;4.88;;;8.50;99.90;;;;;;5074766;28;20044;-50
2022/11/24 03:26:15;;;;;;;6.00;4.80;;;8.50;99.90;;;;;;5088398;28;20028;-50
2022/11/24 03:28:40;;;;;;;6.55;4.80;;;8.40;99.90;;;;;;5085636;28;20074;-49
2022/11/24 03:31:08;;;;;;;5.43;4.63;;;8.40;99.90;;;;;;5075831;28;20459;-50
2022/11/24 03:33:34;;;;;;;6.55;4.18;;;8.30;99.90;;;;;;5086504;28;20032;-49
2022/11/24 03:36:00;;;;;;;5.50;4.53;;;8.20;99.90;;;;;;5053924;28;20124;-49
2022/11/24 03:38:26;;;;;;;6.40;4.75;;;8.20;99.90;;;;;;5081164;28;20490;-50
2022/11/24 03:40:51;;;;;;;6.82;4.60;;;8.20;99.90;;;;;;5085345;28;20435;-49
2022/11/24 03:43:19;;;;;;;6.30;4.93;;;8.20;99.90;;;;;;5081293;28;20028;-49
2022/11/24 03:45:45;;;;;;;6.57;4.10;;;8.20;99.90;;;;;;5047866;28;20160;-49
2022/11/24 03:48:11;;;;;;;7.80;5.35;;;8.10;99.90;;;;;;5081942;28;20087;-50
2022/11/24 03:50:37;;;;;;;5.90;4.20;;;8.10;99.90;;;;;;5084652;28;20032;-49
2022/11/24 03:53:03;;;;;;;7.32;5.70;;;8.20;99.90;;;;;;5082997;28;20036;-49
2022/11/24 03:55:32;;;;;;;7.10;5.18;;;8.20;99.90;;;;;;5083914;28;20048;-50
2022/11/24 03:57:57;;;;;;;6.97;5.43;;;8.20;99.90;;;;;;5089031;28;20039;-49
2022/11/24 04:00:25;;;;;;;7.78;5.85;;;8.20;99.90;;;;;;5088234;28;20036;-49
2022/11/24 04:02:51;;;;;;;7.70;6.40;;;8.20;99.90;;;;;;5085391;28;20039;-49
2022/11/24 04:05:16;;;;;;;7.97;6.07;;;8.20;99.90;;;;;;5089652;28;20594;-52
2022/11/24 04:07:42;;;;;;;8.65;5.82;;;8.20;99.90;;;;;;5081954;28;20031;-49
2022/11/24 04:10:08;;;;;;;7.93;5.72;;;8.20;99.90;;;;;;5083318;28;20029;-50
2022/11/24 04:12:49;;;;;;;7.55;5.70;;;8.20;99.90;;;;;;5083066;28;20028;-49
2022/11/24 04:15:17;;;;;;;8.02;6.03;;;8.10;99.90;;;;;;5083092;28;20020;-49
2022/11/24 04:17:43;;;;;;;9.35;6.25;;;8.10;99.90;;;;;;5082109;28;20024;-49
2022/11/24 04:20:10;;;;;;;8.75;5.60;;;8.20;99.90;;;;;;5081877;28;20486;-51
2022/11/24 04:22:36;;;;;;;7.95;6.05;;;8.20;99.90;;;;;;5076870;28;20017;-49
2022/11/24 04:25:02;;;;;;;7.55;5.70;;;8.20;99.90;;;;;;5081634;28;20438;-49
2022/11/24 04:27:28;;;;;;;9.45;6.25;;;8.10;99.90;;;;;;5087635;28;20039;-49
2022/11/24 04:29:54;;;;;;;7.95;6.53;;;8.10;99.90;;;;;;5078325;28;20029;-50
2022/11/24 04:32:19;;;;;;;7.50;5.72;;;8.10;99.90;;;;;;5080683;28;20039;-49
2022/11/24 04:34:45;;;;;;;8.55;6.10;;;8.10;99.90;;;;;;5057737;28;20127;-49
2022/11/24 04:37:11;;;;;;;10.32;7.38;;;8.00;99.90;;;;;;5082210;28;20028;-50
2022/11/24 04:39:36;;;;;;;10.70;7.75;;;8.00;99.90;;;;;;5083270;28;20044;-50
2022/11/24 04:42:02;;;;;;;11.18;7.68;;;8.00;99.90;;;;;;5077302;28;20116;-49
2022/11/24 04:44:28;;;;;;;18.55;8.98;;;8.10;99.90;;;;;;5086981;28;20099;-49
2022/11/24 04:46:54;;;;;;;14.30;9.93;;;8.20;99.90;;;;;;5078683;28;20527;-49
2022/11/24 04:49:20;;;;;;;9.50;7.05;;;8.10;99.90;;;;;;5092542;28;20449;-50
2022/11/24 04:51:45;;;;;;;9.02;7.10;;;7.90;99.90;;;;;;5090157;28;20479;-50
2022/11/24 04:54:12;;;;;;;9.63;7.13;;;8.00;99.90;;;;;;5082785;28;20039;-49
2022/11/24 04:56:39;;;;;;;11.95;8.95;;;8.00;99.90;;;;;;5077209;28;20035;-49
2022/11/24 04:59:05;;;;;;;9.57;7.18;;;8.00;99.90;;;;;;5083214;28;20028;-52
2022/11/24 05:01:31;;;;;;;10.95;8.30;;;8.00;99.90;;;;;;5086613;28;20491;-50
2022/11/24 05:03:57;;;;;;;15.90;11.13;;;8.00;99.90;;;;;;5083278;28;20028;-50
2022/11/24 05:06:23;;;;;;;12.52;9.18;;;8.00;99.90;;;;;;5080975;28;20024;-50
2022/11/24 05:08:50;;;;;;;21.38;12.75;;;7.90;99.90;;;;;;5087433;28;20395;-51
2022/11/24 05:11:17;;;;;;;21.75;13.30;;;7.80;99.90;;;;;;5077756;28;20025;-50
2022/11/24 05:13:43;;;;;;;12.25;8.63;;;7.80;99.90;;;;;;5080403;28;20384;-50
2022/11/24 05:16:09;;;;;;;12.40;8.45;;;7.90;99.90;;;;;;5083354;28;20383;-51
2022/11/24 05:18:34;;;;;;;9.75;7.75;;;7.90;99.90;;;;;;5089436;28;20020;-50
2022/11/24 05:21:00;;;;;;;9.95;7.63;;;8.00;99.90;;;;;;5085099;28;20576;-50
2022/11/24 05:23:26;;;;;;;9.85;7.38;;;7.90;99.90;;;;;;5075547;28;20028;-50
2022/11/24 05:25:52;;;;;;;10.52;7.50;;;8.00;99.90;;;;;;5084444;28;20038;-50
2022/11/24 05:28:18;;;;;;;11.25;8.10;;;8.00;99.90;;;;;;5091006;28;20052;-50
2022/11/24 05:30:44;;;;;;;12.60;8.45;;;8.00;99.90;;;;;;5084484;28;20020;-50
2022/11/24 05:33:17;;;;;;;12.20;8.15;;;8.10;99.90;;;;;;5084581;28;20104;-50
2022/11/24 05:35:44;;;;;;;12.13;8.90;;;8.20;99.90;;;;;;5083723;28;20024;-50
2022/11/24 05:38:10;;;;;;;11.25;7.57;;;8.30;99.90;;;;;;5081036;28;20029;-51
2022/11/24 05:40:36;;;;;;;12.95;8.50;;;8.30;99.90;;;;;;5079403;28;20035;-50
2022/11/24 05:43:02;;;;;;;11.15;8.45;;;8.20;99.90;;;;;;5064907;28;20040;-50
2022/11/24 05:45:27;;;;;;;12.18;8.50;;;8.30;99.90;;;;;;5082441;28;20502;-50
2022/11/24 05:47:53;;;;;;;13.07;9.13;;;8.30;99.90;;;;;;5080504;28;20063;-50
2022/11/24 05:50:20;;;;;;;11.85;9.35;;;8.40;99.90;;;;;;5081210;28;20468;-51
2022/11/24 05:52:47;;;;;;;12.40;9.65;;;8.50;99.90;;;;;;5078291;28;20020;-50
2022/11/24 05:55:14;;;;;;;17.10;9.90;;;8.40;99.90;;;;;;5079024;28;20111;-51
2022/11/24 05:57:40;;;;;;;15.25;9.43;;;8.50;99.90;;;;;;5093301;28;20111;-50
2022/11/24 06:00:09;;;;;;;11.82;8.73;;;8.50;99.90;;;;;;5081120;28;20690;-51
2022/11/24 06:02:34;;;;;;;13.02;8.90;;;8.50;99.90;;;;;;5081388;28;20124;-50
2022/11/24 06:05:00;;;;;;;11.88;8.38;;;8.60;99.90;;;;;;5076565;28;20122;-50
2022/11/24 06:07:26;;;;;;;11.57;7.95;;;8.60;99.90;;;;;;5047099;28;20035;-50
2022/11/24 06:09:52;;;;;;;11.57;8.05;;;8.60;99.90;;;;;;5030937;28;20064;-52
2022/11/24 06:12:17;;;;;;;11.38;7.38;;;8.60;99.90;;;;;;5076043;28;20059;-51
2022/11/24 06:14:43;;;;;;;11.15;7.47;;;8.60;99.90;;;;;;5075941;28;20127;-49
2022/11/24 06:17:10;;;;;;;14.40;10.00;;;8.60;99.90;;;;;;5079243;28;20036;-54
2022/11/24 06:19:36;;;;;;;15.07;10.23;;;8.60;99.90;;;;;;5086350;28;20047;-52
2022/11/24 06:22:01;;;;;;;11.93;9.20;;;8.50;99.90;;;;;;5092729;28;20032;-53
2022/11/24 06:24:27;;;;;;;15.10;11.57;;;8.50;99.90;;;;;;5090400;28;20037;-53
2022/11/24 06:26:53;;;;;;;12.35;8.88;;;8.50;99.90;;;;;;5075109;28;20036;-52
2022/11/24 06:29:18;;;;;;;21.58;14.10;;;8.50;99.90;;;;;;5088959;28;20039;-52
2022/11/24 06:31:44;;;;;;;12.05;8.13;;;8.50;99.90;;;;;;5093039;28;20035;-52
2022/11/24 06:34:12;;;;;;;8.63;6.53;;;8.50;99.90;;;;;;5093309;28;20520;-51
2022/11/24 06:36:38;;;;;;;8.80;7.00;;;8.50;99.90;;;;;;5058456;28;20032;-50
2022/11/24 06:39:05;;;;;;;10.73;6.43;;;8.50;99.90;;;;;;5070843;28;20032;-50
2022/11/24 06:41:31;;;;;;;10.05;7.28;;;8.60;99.90;;;;;;5096314;28;20106;-50
2022/11/24 06:43:57;;;;;;;7.32;5.63;;;8.60;99.90;;;;;;5061360;28;20158;-50
2022/11/24 06:46:23;;;;;;;6.35;4.85;;;8.60;99.90;;;;;;5096320;28;20074;-50
2022/11/24 06:48:51;;;;;;;7.22;4.95;;;8.60;99.90;;;;;;5097097;28;20024;-50
2022/11/24 06:51:18;;;;;;;7.00;4.65;;;8.60;99.90;;;;;;5096949;28;20032;-50
2022/11/24 06:53:44;;;;;;;6.15;4.45;;;8.50;99.90;;;;;;5096769;28;20028;-50
2022/11/24 06:56:12;;;;;;;5.88;4.10;;;8.50;99.90;;;;;;5096843;28;20023;-51
2022/11/24 06:58:43;;;;;;;8.27;4.60;;;8.50;99.90;;;;;;5112043;28;20040;-50
2022/11/24 07:01:16;;;;;;;7.35;5.13;;;8.50;99.90;;;;;;5096802;28;20035;-51
2022/11/24 07:03:42;;;;;;;7.15;4.90;;;8.60;99.90;;;;;;5111816;28;20483;-50
2022/11/24 07:06:08;;;;;;;4.18;2.88;;;8.60;99.90;;;;;;5096761;28;20031;-50
2022/11/24 07:08:34;;;;;;;6.45;4.22;;;8.60;99.90;;;;;;5096735;28;20036;-50
2022/11/24 07:11:05;;;;;;;5.43;4.07;;;8.60;99.90;;;;;;5094512;28;20040;-49
2022/11/24 07:13:30;;;;;;;7.93;4.35;;;8.70;99.90;;;;;;5096420;28;20036;-50
2022/11/24 07:15:56;;;;;;;4.10;2.92;;;8.70;99.90;;;;;;5111593;28;20506;-50
2022/11/24 07:18:21;;;;;;;7.57;4.50;;;8.70;99.90;;;;;;5111184;28;20032;-50
2022/11/24 07:20:47;;;;;;;6.53;4.50;;;8.70;99.90;;;;;;5096057;28;20036;-50
2022/11/24 07:23:13;;;;;;;6.68;3.80;;;8.70;99.90;;;;;;5096489;28;20107;-50
2022/11/24 07:25:39;;;;;;;5.03;3.85;;;8.80;99.90;;;;;;5094310;28;20115;-50
2022/11/24 07:28:04;;;;;;;12.88;8.23;;;8.70;99.90;;;;;;5096390;28;20058;-50
2022/11/24 07:30:30;;;;;;;7.10;5.22;;;8.70;99.90;;;;;;5095884;28;20460;-50
2022/11/24 07:33:02;;;;;;;4.65;3.55;;;8.70;99.90;;;;;;5096256;28;20106;-50
2022/11/24 07:35:29;;;;;;;4.55;3.60;;;8.60;99.90;;;;;;5093635;28;20032;-50
2022/11/24 07:37:56;;;;;;;7.68;5.60;;;8.70;99.90;;;;;;5095785;28;20058;-50
2022/11/24 07:40:23;;;;;;;7.85;4.68;;;8.70;99.90;;;;;;5095734;28;20128;-50
2022/11/24 07:42:49;;;;;;;6.60;4.85;;;8.80;99.90;;;;;;5095827;28;20065;-50
2022/11/24 07:45:15;;;;;;;5.18;4.07;;;8.80;99.90;;;;;;5095470;28;20074;-50
2022/11/24 07:47:41;;;;;;;5.43;4.55;;;8.80;99.90;;;;;;5110778;28;20372;-51
2022/11/24 07:50:08;;;;;;;5.53;3.90;;;8.90;99.90;;;;;;5095741;28;20038;-50
2022/11/24 07:52:35;;;;;;;6.43;5.05;;;8.90;99.90;;;;;;5059729;28;20043;-50
2022/11/24 07:55:00;;;;;;;7.47;5.00;;;9.00;99.90;;;;;;5095475;28;20028;-50
2022/11/24 07:57:27;;;;;;;5.32;4.03;;;9.00;99.90;;;;;;5095567;28;20020;-51
2022/11/24 07:59:54;;;;;;;4.95;3.75;;;9.00;99.90;;;;;;5095374;28;20040;-50
2022/11/24 08:02:20;;;;;;;4.85;3.50;;;9.00;99.90;;;;;;5095553;28;20077;-50
2022/11/24 08:04:45;;;;;;;7.45;4.30;;;9.00;99.90;;;;;;5095703;28;20402;-50
2022/11/24 08:07:11;;;;;;;4.75;3.70;;;8.90;99.90;;;;;;5095274;28;20043;-50
2022/11/24 08:09:37;;;;;;;7.03;4.28;;;8.90;99.90;;;;;;5095270;28;20046;-50
2022/11/24 08:12:03;;;;;;;4.90;3.88;;;9.00;99.90;;;;;;5095108;28;20024;-50
2022/11/24 08:14:29;;;;;;;4.95;3.85;;;9.00;99.90;;;;;;5094933;28;20028;-50
2022/11/24 08:16:54;;;;;;;6.18;4.43;;;9.10;99.90;;;;;;5093426;28;20116;-50
2022/11/24 08:19:21;;;;;;;7.82;5.50;;;9.10;99.90;;;;;;5093129;28;20039;-50
2022/11/24 08:21:47;;;;;;;6.30;4.90;;;9.10;99.90;;;;;;5094846;28;20085;-50
2022/11/24 08:24:14;;;;;;;6.07;5.00;;;9.20;99.90;;;;;;5095556;28;20040;-50
2022/11/24 08:26:41;;;;;;;5.80;4.72;;;9.20;99.90;;;;;;5096330;28;20039;-51
2022/11/24 08:29:07;;;;;;;6.90;4.78;;;9.30;99.90;;;;;;5096378;28;20016;-51
2022/11/24 08:31:34;;;;;;;8.45;5.00;;;9.30;99.90;;;;;;5097199;28;20020;-55
2022/11/24 08:34:01;;;;;;;12.85;8.35;;;9.30;99.90;;;;;;5098535;28;20039;-51
2022/11/24 08:36:27;;;;;;;17.55;11.18;;;9.30;99.90;;;;;;5095397;28;20060;-50
2022/11/24 08:38:55;;;;;;;10.00;6.82;;;9.40;99.90;;;;;;5094953;28;20175;-50
2022/11/24 08:41:21;;;;;;;8.00;5.72;;;9.40;99.90;;;;;;5094614;28;20111;-50
2022/11/24 08:43:46;;;;;;;6.85;4.97;;;9.40;99.90;;;;;;5094865;28;20509;-50
2022/11/24 08:46:15;;;;;;;5.70;4.35;;;9.50;99.90;;;;;;5092409;28;20040;-51
2022/11/24 08:48:42;;;;;;;6.25;5.07;;;9.50;99.90;;;;;;5094421;28;20028;-51
2022/11/24 08:51:11;;;;;;;5.30;4.30;;;9.50;99.90;;;;;;5094407;28;20024;-50
2022/11/24 08:53:37;;;;;;;4.40;3.42;;;9.60;99.90;;;;;;5091629;28;20503;-50
2022/11/24 08:56:04;;;;;;;4.50;3.55;;;9.60;99.90;;;;;;5088555;28;20040;-51
2022/11/24 08:58:30;;;;;;;7.95;3.53;;;9.70;99.90;;;;;;5080643;28;20075;-47
2022/11/24 09:01:10;;;;;;;5.75;3.65;;;9.60;99.90;;;;;;5025606;28;20080;-55
2022/11/24 09:03:39;;;;;;;9.75;4.90;;;9.60;99.90;;;;;;5029869;28;20148;-53
2022/11/24 09:06:06;;;;;;;5.53;3.95;;;9.60;99.90;;;;;;5015967;28;20157;-47
2022/11/24 09:08:33;;;;;;;5.45;4.00;;;9.60;99.90;;;;;;5019618;28;20141;-48
2022/11/24 09:11:04;;;;;;;4.75;3.33;;;9.60;99.90;;;;;;5019627;28;20037;-54
2022/11/24 09:13:30;;;;;;;5.63;3.67;;;9.70;99.90;;;;;;5029179;28;20467;-49
2022/11/24 09:16:08;;;;;;;4.70;3.28;;;9.80;99.90;;;;;;5025637;28;20034;-50
2022/11/24 09:18:34;;;;;;;7.45;3.90;;;9.90;99.90;;;;;;5022397;28;20038;-48
2022/11/24 09:21:17;;;;;;;4.13;2.65;;;9.90;99.90;;;;;;5010154;28;20050;-49
2022/11/24 09:23:43;;;;;;;6.57;5.82;;;9.80;99.90;;;;;;5025587;28;20635;-53
2022/11/24 09:26:18;;;;;;;7.28;4.93;;;9.80;99.90;;;;;;5037893;28;20061;-51
2022/11/24 09:28:44;;;;;;;3.55;2.42;;;9.80;99.90;;;;;;5037362;28;20028;-51
2022/11/24 09:31:12;;;;;;;6.13;3.63;;;9.80;99.90;;;;;;5054137;28;20491;-53
2022/11/24 09:33:38;;;;;;;4.82;3.50;;;9.70;99.90;;;;;;5083922;28;20051;-54
2022/11/24 09:36:05;;;;;;;5.53;3.97;;;9.80;99.90;;;;;;5079778;28;20532;-53
2022/11/24 09:38:31;;;;;;;5.43;3.63;;;9.80;99.90;;;;;;5077609;28;20028;-54
2022/11/24 09:41:14;;;;;;;6.18;4.50;;;10.00;99.90;;;;;;5076906;28;20041;-53
2022/11/24 09:44:05;;;;;;;4.70;3.45;;;10.00;99.90;;;;;;5077668;28;20055;-53
2022/11/24 09:46:33;;;;;;;6.90;4.72;;;10.00;99.90;;;;;;5077591;28;20044;-55
2022/11/24 09:49:01;;;;;;;7.22;4.65;;;10.00;99.90;;;;;;5093217;28;20028;-51
2022/11/24 09:51:30;;;;;;;6.00;4.15;;;10.00;99.90;;;;;;5079594;28;20383;-50
2022/11/24 09:54:04;;;;;;;6.55;5.00;;;10.00;99.90;;;;;;5076530;28;20119;-53
2022/11/24 09:56:33;;;;;;;5.70;4.45;;;10.00;99.90;;;;;;5079698;28;20067;-56
2022/11/24 09:59:13;;;;;;;8.25;5.20;;;10.10;99.90;;;;;;5077837;28;20024;-55
2022/11/24 10:01:44;;;;;;;6.15;3.80;;;10.10;99.90;;;;;;5082319;28;20028;-52
2022/11/24 10:04:54;;;;;;;7.00;4.53;;;10.10;99.90;;;;;;5082378;28;20086;-54
2022/11/24 10:08:10;;;;;;;5.82;3.72;;;10.10;99.90;;;;;;5046404;28;20041;-51
2022/11/24 10:10:58;;;;;;;7.15;5.00;;;10.10;99.90;;;;;;4964180;28;20039;-52
2022/11/24 10:13:44;;;;;;;5.63;4.47;;;10.10;99.90;;;;;;4961028;28;20487;-56
2022/11/24 10:16:29;;;;;;;8.07;5.40;;;10.10;99.90;;;;;;4956819;28;20055;-53
2022/11/24 10:19:13;;;;;;;5.68;3.85;;;10.10;99.90;;;;;;4966555;28;20085;-51
2022/11/24 10:22:16;;;;;;;5.35;3.97;;;10.20;99.90;;;;;;4964890;28;20051;-52
2022/11/24 10:25:01;;;;;;;5.63;3.67;;;10.30;99.90;;;;;;4967782;28;20141;-52
2022/11/24 10:27:36;;;;;;;5.88;3.63;;;10.40;99.90;;;;;;4968065;28;20050;-47
2022/11/24 10:30:16;;;;;;;7.65;4.28;;;10.50;99.90;;;;;;4961404;28;20442;-49
2022/11/24 10:32:46;;;;;;;8.65;4.45;;;10.60;99.90;;;;;;4966800;28;20113;-54
2022/11/24 10:35:18;;;;;;;7.72;5.45;;;10.70;99.90;;;;;;4965089;28;20039;-52
2022/11/24 10:38:05;;;;;;;5.45;4.53;;;;;;;;;;4951535;28;20125;-47
2022/11/24 10:40:37;;;;;;;6.72;4.32;;;10.80;99.90;;;;;;4985636;28;20538;-51
2022/11/24 10:43:09;;;;;;;6.88;4.78;;;10.80;99.90;;;;;;5045352;28;20041;-55
2022/11/24 10:45:36;;;;;;;7.82;5.80;;;10.80;99.90;;;;;;5081765;28;20030;-50
2022/11/24 10:48:17;;;;;;;8.32;4.82;;;10.80;99.90;;;;;;5081557;28;20041;-48
2022/11/24 10:50:43;;;;;;;7.70;5.53;;;10.90;99.90;;;;;;5079217;28;20472;-49
2022/11/24 10:53:28;;;;;;;9.95;5.28;;;11.10;99.90;;;;;;5076667;28;20109;-58
2022/11/24 10:55:54;;;;;;;6.53;5.15;;;11.00;99.90;;;;;;5077001;28;20562;-52
2022/11/24 10:58:25;;;;;;;7.93;4.32;;;11.00;99.90;;;;;;5075916;28;20060;-62
2022/11/24 11:00:51;;;;;;;9.32;6.35;;;10.90;99.90;;;;;;5044253;28;20070;-53
2022/11/24 11:03:19;;;;;;;5.55;5.03;;;11.40;99.90;;;;;;5079325;28;20475;-54
2022/11/24 11:05:52;;;;;;;8.77;6.57;;;12.00;99.90;;;;;;5082161;28;20134;-47
2022/11/24 11:08:23;;;;;;;5.32;4.80;;;13.10;99.90;;;;;;5088069;28;20024;-63
2022/11/24 11:11:13;;;;;;;7.25;5.95;;;13.60;99.90;;;;;;5097491;28;20051;-51
2022/11/24 11:13:50;;;;;;;5.60;4.55;;;;;;;;;;5082366;28;20121;-50
2022/11/24 11:16:40;;;;;;;4.50;4.10;;;15.00;99.90;;;;;;5080065;28;20075;-51
2022/11/24 11:19:31;;;;;;;3.90;3.22;;;14.70;99.90;;;;;;5087306;28;20122;-52
2022/11/24 11:22:04;;;;;;;6.30;5.70;;;14.60;99.90;;;;;;5078014;28;20029;-51
2022/11/24 11:24:30;;;;;;;5.50;2.88;;;15.70;99.90;;;;;;5101808;28;20043;-51
2022/11/24 11:27:04;;;;;;;6.53;3.58;;;15.30;99.90;;;;;;5086465;28;20048;-51
2022/11/24 11:29:31;;;;;;;3.80;2.20;;;14.60;99.90;;;;;;5085902;28;20119;-51
2022/11/24 11:32:00;;;;;;;3.47;2.72;;;13.70;99.90;;;;;;5084831;28;20181;-52
2022/11/24 11:34:30;;;;;;;4.80;2.65;;;13.80;99.90;;;;;;5086492;28;20029;-51
2022/11/24 11:36:58;;;;;;;3.30;2.33;;;;;;;;;;5078258;28;20028;-51
2022/11/24 11:39:44;;;;;;;3.15;1.95;;;13.30;99.90;;;;;;5077949;28;20033;-52
2022/11/24 11:42:32;;;;;;;3.53;2.50;;;13.00;99.90;;;;;;5084474;28;20597;-52
2022/11/24 11:45:17;;;;;;;4.05;2.97;;;12.60;99.90;;;;;;5085690;28;20110;-51
2022/11/24 11:48:16;;;;;;;4.07;2.53;;;12.50;99.90;;;;;;5082051;28;20052;-52
2022/11/24 11:50:44;;;;;;;2.75;1.50;;;12.40;99.90;;;;;;5081679;28;20032;-52
2022/11/24 11:53:25;;;;;;;2.60;1.50;;;12.00;99.90;;;;;;5082196;28;20028;-53
2022/11/24 11:56:19;;;;;;;2.38;1.50;;;12.40;99.90;;;;;;5086092;28;20116;-51
2022/11/24 11:59:22;;;;;;;5.65;3.38;;;12.00;99.90;;;;;;5077403;28;20029;-57
2022/11/24 12:01:54;;;;;;;4.68;2.83;;;12.20;99.90;;;;;;5080184;28;20492;-50
2022/11/24 12:04:34;;;;;;;4.55;2.00;;;12.60;99.90;;;;;;5082553;28;20028;-47
2022/11/24 12:07:25;;;;;;;4.35;3.05;;;12.60;99.90;;;;;;5083783;28;20726;-46
2022/11/24 12:10:09;;;;;;;7.97;4.35;;;12.40;99.90;;;;;;5083830;28;20036;-55
2022/11/24 12:12:55;;;;;;;3.17;1.88;;;12.30;99.90;;;;;;5081080;28;20028;-53
2022/11/24 12:15:37;;;;;;;6.05;4.18;;;12.30;99.90;;;;;;5079030;28;20080;-53
2022/11/24 12:18:02;;;;;;;5.75;3.72;;;11.80;99.90;;;;;;5079714;28;20036;-46
2022/11/24 12:20:38;;;;;;;17.67;10.60;;;11.40;99.90;;;;;;5076192;28;20040;-49
2022/11/24 12:23:30;;;;;;;18.08;9.60;;;11.50;99.90;;;;;;5085835;28;20459;-49
2022/11/24 12:26:07;;;;;;;24.93;12.37;;;11.30;99.90;;;;;;5050390;28;20032;-50
2022/11/24 12:28:53;;;;;;;24.60;14.13;;;11.20;99.90;;;;;;5079321;28;20273;-52
2022/11/24 12:31:51;;;;;;;3.92;2.00;;;11.20;99.90;;;;;;5084711;28;20480;-52
2022/11/24 12:34:45;;;;;;;9.68;4.05;;;11.10;99.90;;;;;;5082745;28;20395;-49
2022/11/24 12:37:19;;;;;;;7.20;4.05;;;11.10;99.90;;;;;;5072064;28;20059;-54
2022/11/24 12:39:44;;;;;;;7.22;4.07;;;11.20;99.90;;;;;;5081792;28;20127;-47
2022/11/24 12:42:41;;;;;;;3.33;1.95;;;11.20;99.90;;;;;;5060608;28;20470;-53
2022/11/24 12:45:24;;;;;;;23.52;10.57;;;11.10;99.90;;;;;;5077704;28;20519;-51
2022/11/24 12:48:09;;;;;;;55.95;26.48;;;11.20;99.90;;;;;;5082603;28;20408;-49
2022/11/24 12:50:38;;;;;;;37.65;16.30;;;11.30;99.90;;;;;;5083028;28;20106;-53
2022/11/24 12:53:26;;;;;;;54.15;25.42;;;11.30;99.90;;;;;;5026177;28;20033;-48
2022/11/24 12:55:53;;;;;;;16.60;8.23;;;11.40;99.90;;;;;;5062613;28;20473;-47
2022/11/24 12:58:27;;;;;;;21.02;9.95;;;11.40;99.90;;;;;;5058637;28;20076;-51
2022/11/24 13:01:15;;;;;;;6.78;4.95;;;11.90;99.90;;;;;;5006393;28;20045;-53
2022/11/24 13:03:59;;;;;;;3.85;2.53;;;11.90;99.90;;;;;;5054341;28;20048;-48
2022/11/24 13:06:28;;;;;;;5.07;1.98;;;11.80;99.90;;;;;;5061318;28;20044;-53
2022/11/24 13:08:55;;;;;;;3.65;2.40;;;11.90;99.90;;;;;;5027541;28;20098;-51